createdAt,value
2019-05-14T00:00:32.453Z,74.40
2019-05-14T00:03:03.039Z,74.70
2019-05-14T00:05:33.526Z,74.70
2019-05-14T00:08:04.295Z,74.90
2019-05-14T00:10:34.881Z,75.00
2019-05-14T00:13:05.373Z,75.60
2019-05-14T00:15:35.841Z,75.90
2019-05-14T00:18:06.325Z,76.30
2019-05-14T00:20:36.956Z,76.50
2019-05-14T00:23:07.613Z,76.60
2019-05-14T00:25:38.118Z,76.90
2019-05-14T00:28:08.677Z,76.90
2019-05-14T00:30:39.151Z,77.50
2019-05-14T00:33:11.550Z,77.90
2019-05-14T00:35:41.839Z,78.30
2019-05-14T00:38:12.348Z,78.40
2019-05-14T00:40:42.785Z,78.50
2019-05-14T00:43:13.236Z,78.40
2019-05-14T00:45:43.679Z,78.80
2019-05-14T00:48:14.190Z,78.90
2019-05-14T00:50:44.735Z,79.20
2019-05-14T00:53:15.184Z,79.70
2019-05-14T00:55:45.694Z,79.80
2019-05-14T00:58:16.222Z,79.70
2019-05-14T01:00:46.787Z,79.60
2019-05-14T01:03:17.265Z,79.60
2019-05-14T01:05:47.789Z,79.80
2019-05-14T01:08:18.360Z,79.80
2019-05-14T01:10:50.990Z,79.40
2019-05-14T01:13:21.926Z,79.40
2019-05-14T01:15:52.791Z,79.40
2019-05-14T01:18:23.361Z,79.00
2019-05-14T01:20:53.850Z,79.20
2019-05-14T01:23:24.313Z,79.30
2019-05-14T01:25:54.745Z,79.40
2019-05-14T01:28:25.214Z,79.50
2019-05-14T01:30:55.739Z,79.30
2019-05-14T01:33:26.523Z,79.60
2019-05-14T01:35:57.014Z,79.70
2019-05-14T01:38:27.533Z,79.80
2019-05-14T01:40:57.967Z,80.00
2019-05-14T01:43:28.549Z,80.10
2019-05-14T01:46:01.612Z,80.20
2019-05-14T01:48:31.450Z,80.20
2019-05-14T01:51:01.965Z,80.50
2019-05-14T01:53:32.257Z,80.70
2019-05-14T01:56:02.735Z,80.60
2019-05-14T01:58:33.304Z,80.50
2019-05-14T02:01:03.811Z,80.50
2019-05-14T02:03:34.310Z,80.60
2019-05-14T02:06:04.775Z,80.50
2019-05-14T02:08:35.258Z,81.20
2019-05-14T02:11:05.714Z,81.00
2019-05-14T02:13:36.181Z,81.00
2019-05-14T02:16:06.702Z,80.60
2019-05-14T02:18:37.175Z,80.90
2019-05-14T02:21:07.687Z,81.10
2019-05-14T02:23:38.448Z,81.50
2019-05-14T02:26:11.291Z,82.00
2019-05-14T02:28:42.012Z,82.30
2019-05-14T02:31:12.764Z,82.30
2019-05-14T02:33:43.234Z,82.40
2019-05-14T02:36:13.699Z,82.40
2019-05-14T02:38:44.336Z,82.30
2019-05-14T02:41:14.816Z,82.30
2019-05-14T02:43:45.270Z,83.60
2019-05-14T02:46:17.444Z,82.60
2019-05-14T02:48:49.170Z,82.80
2019-05-14T02:51:20.263Z,82.70
2019-05-14T02:53:51.404Z,82.60
2019-05-14T02:56:21.925Z,82.90
2019-05-14T02:58:52.361Z,82.90
2019-05-14T03:01:22.811Z,82.70
2019-05-14T03:03:53.338Z,82.60
2019-05-14T03:06:24.038Z,82.60
2019-05-14T03:08:54.498Z,82.50
2019-05-14T03:11:25.019Z,82.60
2019-05-14T03:13:55.598Z,83.10
2019-05-14T03:16:34.630Z,83.30
2019-05-14T03:18:59.549Z,83.30
2019-05-14T03:21:30.699Z,83.50
2019-05-14T03:24:01.153Z,83.70
2019-05-14T03:26:31.737Z,84.00
2019-05-14T03:29:02.296Z,84.20
2019-05-14T03:31:33.983Z,84.50
2019-05-14T03:34:04.842Z,84.50
2019-05-14T03:36:35.819Z,84.30
2019-05-14T03:39:10.515Z,84.80
2019-05-14T03:41:40.192Z,84.90
2019-05-14T03:44:10.748Z,85.00
2019-05-14T03:46:51.158Z,85.00
2019-05-14T03:49:13.481Z,85.20
2019-05-14T03:51:44.003Z,85.20
2019-05-14T03:54:14.656Z,85.70
2019-05-14T03:56:45.187Z,85.70
2019-05-14T03:59:16.110Z,85.30
2019-05-14T04:01:50.696Z,85.70
2019-05-14T04:04:19.743Z,85.60
2019-05-14T04:06:52.224Z,85.70
2019-05-14T04:09:24.405Z,86.20
2019-05-14T04:11:59.479Z,86.40
2019-05-14T04:14:32.730Z,86.10
2019-05-14T04:17:10.996Z,85.70
2019-05-14T04:19:39.665Z,85.80
2019-05-14T04:22:14.513Z,85.90
2019-05-14T04:24:49.603Z,85.60
2019-05-14T04:27:22.352Z,85.40
2019-05-14T04:29:54.974Z,85.00
2019-05-14T04:32:29.226Z,85.20
2019-05-14T04:35:00.009Z,85.40
2019-05-14T04:37:30.661Z,85.20
2019-05-14T04:40:01.254Z,85.40
2019-05-14T04:42:31.850Z,85.80
2019-05-14T04:45:05.586Z,85.70
2019-05-14T04:47:37.429Z,85.30
2019-05-14T04:50:10.573Z,85.40
2019-05-14T04:52:40.610Z,85.70
2019-05-14T04:55:11.372Z,85.40
2019-05-14T04:57:41.787Z,85.00
2019-05-14T05:00:12.853Z,84.50
2019-05-14T05:02:43.486Z,83.70
2019-05-14T05:05:14.103Z,83.20
2019-05-14T05:07:44.607Z,83.20
2019-05-14T05:10:15.112Z,82.40
2019-05-14T05:12:45.607Z,82.20
2019-05-14T05:15:16.123Z,82.60
2019-05-14T05:17:51.809Z,82.50
2019-05-14T05:20:19.471Z,81.50
2019-05-14T05:22:49.974Z,81.90
2019-05-14T05:25:20.540Z,81.10
2019-05-14T05:27:51.221Z,81.20
2019-05-14T05:30:22.117Z,81.90
2019-05-14T05:32:52.637Z,82.40
2019-05-14T05:35:23.206Z,81.50
2019-05-14T05:37:53.948Z,80.10
2019-05-14T05:40:24.458Z,78.90
2019-05-14T05:42:54.915Z,77.60
2019-05-14T05:45:25.467Z,76.30
2019-05-14T05:47:59.038Z,74.10
2019-05-14T05:50:28.744Z,74.50
2019-05-14T05:52:59.470Z,73.80
2019-05-14T05:55:30.008Z,74.90
2019-05-14T05:58:00.478Z,73.50
2019-05-14T06:00:39.494Z,71.40
2019-05-14T06:03:10.679Z,70.50
2019-05-14T06:05:41.476Z,69.80
2019-05-14T06:08:12.107Z,70.10
2019-05-14T06:10:42.596Z,71.30
2019-05-14T06:13:14.045Z,72.00
2019-05-14T06:15:48.726Z,71.70
2019-05-14T06:18:19.452Z,70.10
2019-05-14T06:20:49.524Z,70.70
2019-05-14T06:23:19.997Z,70.80
2019-05-14T06:25:50.455Z,73.50
2019-05-14T06:28:21.202Z,73.80
2019-05-14T06:30:51.645Z,74.20
2019-05-14T06:33:22.181Z,74.80
2019-05-14T06:35:52.679Z,72.80
2019-05-14T06:38:23.217Z,70.20
2019-05-14T06:40:53.782Z,69.20
2019-05-14T06:43:24.268Z,67.00
2019-05-14T06:45:54.810Z,66.90
2019-05-14T06:48:30.831Z,64.90
2019-05-14T06:50:58.448Z,65.00
2019-05-14T06:53:29.375Z,64.40
2019-05-14T06:55:59.940Z,62.70
2019-05-14T06:58:30.387Z,62.50
2019-05-14T07:01:00.888Z,61.90
2019-05-14T07:03:31.477Z,62.00
2019-05-14T07:06:01.966Z,61.20
2019-05-14T07:08:32.413Z,59.80
2019-05-14T07:11:02.835Z,59.50
2019-05-14T07:13:33.353Z,59.50
2019-05-14T07:16:03.815Z,58.20
2019-05-14T07:18:48.563Z,58.40
2019-05-14T07:21:08.220Z,57.60
2019-05-14T07:23:38.833Z,58.60
2019-05-14T07:26:09.310Z,57.40
2019-05-14T07:28:42.493Z,57.50
2019-05-14T07:31:12.424Z,56.70
2019-05-14T07:33:42.927Z,56.40
2019-05-14T07:36:13.828Z,56.50
2019-05-14T07:38:44.345Z,57.00
2019-05-14T07:41:14.901Z,56.40
2019-05-14T07:43:45.418Z,56.30
2019-05-14T07:46:15.826Z,56.00
2019-05-14T07:49:03.274Z,54.60
2019-05-14T07:51:20.795Z,54.20
2019-05-14T07:53:51.288Z,54.60
2019-05-14T07:56:21.737Z,54.00
2019-05-14T07:58:52.505Z,53.60
2019-05-14T08:01:22.919Z,54.50
2019-05-14T08:03:53.401Z,54.20
2019-05-14T08:06:23.994Z,53.10
2019-05-14T08:08:54.445Z,52.50
2019-05-14T08:11:24.889Z,52.80
2019-05-14T08:13:55.430Z,52.50
2019-05-14T08:16:25.949Z,52.60
2019-05-14T08:18:56.432Z,51.60
2019-05-14T08:21:28.428Z,50.40
2019-05-14T08:23:59.461Z,51.00
2019-05-14T08:26:30.031Z,51.50
2019-05-14T08:29:00.564Z,51.70
2019-05-14T08:31:32.443Z,51.10
2019-05-14T08:34:04.652Z,51.00
2019-05-14T08:36:35.163Z,51.50
2019-05-14T08:39:08.834Z,51.10
2019-05-14T08:41:39.597Z,50.40
2019-05-14T08:44:10.097Z,50.50
2019-05-14T08:46:40.827Z,50.10
2019-05-14T08:49:11.327Z,49.90
2019-05-14T08:51:41.815Z,49.80
2019-05-14T08:54:18.700Z,48.80
2019-05-14T08:56:49.032Z,48.80
2019-05-14T08:59:19.776Z,49.60
2019-05-14T09:02:02.326Z,48.70
2019-05-14T09:04:23.667Z,48.00
2019-05-14T09:06:54.207Z,48.40
2019-05-14T09:09:24.768Z,47.70
2019-05-14T09:11:55.208Z,47.70
2019-05-14T09:14:28.099Z,46.90
2019-05-14T09:16:59.932Z,47.40
2019-05-14T09:19:30.269Z,47.00
2019-05-14T09:22:00.738Z,47.00
2019-05-14T09:24:31.217Z,46.60
2019-05-14T09:27:01.689Z,47.10
2019-05-14T09:29:32.261Z,46.90
2019-05-14T09:32:02.781Z,46.50
2019-05-14T09:34:33.240Z,46.90
2019-05-14T09:37:03.705Z,47.30
2019-05-14T09:39:34.189Z,46.40
2019-05-14T09:42:05.033Z,46.60
2019-05-14T09:44:35.653Z,46.10
2019-05-14T09:47:08.572Z,45.80
2019-05-14T09:49:39.033Z,46.70
2019-05-14T09:52:09.596Z,47.30
2019-05-14T09:54:43.840Z,47.80
2019-05-14T09:57:12.251Z,45.00
2019-05-14T09:59:42.758Z,42.90
2019-05-14T10:02:13.402Z,41.70
2019-05-14T10:04:44.816Z,41.40
2019-05-14T10:07:16.041Z,41.20
2019-05-14T10:09:49.063Z,41.90
2019-05-14T10:12:19.009Z,42.60
2019-05-14T10:14:49.497Z,42.50
2019-05-14T10:17:19.964Z,43.40
2019-05-14T10:19:50.482Z,42.90
2019-05-14T10:22:20.923Z,39.20
2019-05-14T10:24:51.516Z,39.30
2019-05-14T10:27:22.020Z,39.70
2019-05-14T10:29:52.752Z,40.60
2019-05-14T10:32:23.213Z,39.30
2019-05-14T10:34:53.731Z,39.30
2019-05-14T10:37:24.271Z,38.70
2019-05-14T10:39:55.221Z,38.50
2019-05-14T10:42:25.740Z,37.80
2019-05-14T10:44:58.663Z,38.30
2019-05-14T10:47:29.198Z,39.40
2019-05-14T10:49:59.752Z,37.90
2019-05-14T10:52:30.435Z,37.70
2019-05-14T10:55:01.006Z,37.60
2019-05-14T10:57:31.462Z,38.50
2019-05-14T11:00:01.978Z,38.80
2019-05-14T11:02:32.475Z,38.10
2019-05-14T11:05:02.968Z,38.00
2019-05-14T11:07:33.453Z,37.30
2019-05-14T11:10:04.120Z,37.20
2019-05-14T11:12:34.619Z,37.00
2019-05-14T11:15:05.715Z,36.90
2019-05-14T11:17:36.320Z,38.00
2019-05-14T11:20:08.070Z,38.30
2019-05-14T11:22:39.008Z,39.20
2019-05-14T11:25:09.971Z,37.80
2019-05-14T11:27:40.503Z,38.50
2019-05-14T11:30:12.510Z,38.70
2019-05-14T11:32:43.060Z,39.10
2019-05-14T11:35:13.619Z,39.00
2019-05-14T11:37:44.203Z,38.90
2019-05-14T11:40:15.271Z,38.90
2019-05-14T11:42:45.785Z,38.00
2019-05-14T11:45:18.154Z,38.90
2019-05-14T11:47:48.977Z,38.80
2019-05-14T11:50:19.740Z,38.80
2019-05-14T11:52:50.217Z,38.30
2019-05-14T11:55:20.887Z,38.60
2019-05-14T11:57:51.435Z,37.50
2019-05-14T12:00:25.814Z,37.60
2019-05-14T12:02:54.544Z,37.50
2019-05-14T12:05:24.983Z,37.60
2019-05-14T12:07:55.492Z,37.60
2019-05-14T12:10:26.164Z,36.80
2019-05-14T12:12:58.437Z,38.20
2019-05-14T12:15:28.762Z,37.00
2019-05-14T12:17:59.750Z,36.30
2019-05-14T12:20:30.376Z,37.10
2019-05-14T12:23:01.031Z,37.40
2019-05-14T12:25:31.457Z,34.30
2019-05-14T12:28:01.923Z,35.00
2019-05-14T12:30:32.383Z,34.50
2019-05-14T12:33:03.095Z,33.50
2019-05-14T12:35:33.513Z,31.50
2019-05-14T12:38:04.029Z,31.80
2019-05-14T12:40:34.655Z,31.30
2019-05-14T12:43:05.186Z,31.00
2019-05-14T12:45:35.744Z,31.10
2019-05-14T12:48:06.193Z,31.80
2019-05-14T12:50:39.160Z,32.30
2019-05-14T12:53:09.958Z,33.20
2019-05-14T12:55:40.524Z,33.50
2019-05-14T12:58:10.962Z,32.90
2019-05-14T13:00:41.601Z,33.30
2019-05-14T13:03:12.017Z,32.40
2019-05-14T13:05:42.601Z,31.50
2019-05-14T13:08:13.043Z,31.50
2019-05-14T13:10:43.460Z,31.60
2019-05-14T13:13:13.911Z,32.70
2019-05-14T13:15:44.537Z,31.70
2019-05-14T13:18:14.971Z,33.10
2019-05-14T13:20:45.389Z,31.70
2019-05-14T13:23:18.365Z,31.70
2019-05-14T13:25:49.022Z,31.00
2019-05-14T13:28:19.597Z,31.90
2019-05-14T13:30:51.057Z,33.00
2019-05-14T13:33:21.491Z,33.20
2019-05-14T13:35:51.958Z,31.70
2019-05-14T13:38:22.422Z,32.80
2019-05-14T13:40:52.880Z,31.20
2019-05-14T13:43:23.590Z,32.00
2019-05-14T13:45:54.240Z,31.40
2019-05-14T13:48:24.786Z,32.30
2019-05-14T13:50:55.230Z,31.40
2019-05-14T13:53:25.726Z,31.00
2019-05-14T13:55:57.799Z,29.80
2019-05-14T13:58:28.816Z,30.70
2019-05-14T14:00:59.662Z,31.00
2019-05-14T14:03:30.323Z,31.50
2019-05-14T14:06:00.785Z,30.90
2019-05-14T14:08:31.328Z,30.70
2019-05-14T14:11:04.176Z,31.70
2019-05-14T14:13:34.242Z,32.30
2019-05-14T14:16:04.830Z,32.50
2019-05-14T14:18:35.370Z,31.10
2019-05-14T14:21:05.923Z,31.80
2019-05-14T14:23:39.061Z,31.70
2019-05-14T14:26:09.398Z,31.90
2019-05-14T14:28:40.128Z,32.50
2019-05-14T14:31:11.219Z,32.60
2019-05-14T14:33:41.686Z,31.70
2019-05-14T14:36:12.111Z,31.90
2019-05-14T14:38:42.556Z,31.40
2019-05-14T14:41:13.016Z,31.30
2019-05-14T14:43:44.523Z,31.50
2019-05-14T14:46:15.303Z,33.00
2019-05-14T14:48:49.045Z,33.50
2019-05-14T14:51:19.317Z,34.40
2019-05-14T14:53:58.952Z,33.80
2019-05-14T14:56:22.341Z,34.40
2019-05-14T14:58:52.824Z,35.00
2019-05-14T15:01:23.332Z,35.80
2019-05-14T15:03:53.888Z,35.40
2019-05-14T15:06:24.331Z,35.60
2019-05-14T15:08:54.842Z,36.30
2019-05-14T15:11:29.099Z,36.00
2019-05-14T15:13:58.777Z,35.70
2019-05-14T15:16:29.837Z,36.40
2019-05-14T15:19:00.539Z,35.10
2019-05-14T15:21:31.069Z,35.70
2019-05-14T15:24:09.818Z,34.90
2019-05-14T15:26:33.969Z,34.60
2019-05-14T15:29:04.447Z,35.60
2019-05-14T15:31:34.965Z,35.80
2019-05-14T15:34:05.482Z,36.70
2019-05-14T15:36:41.029Z,36.00
2019-05-14T15:39:09.843Z,36.70
2019-05-14T15:41:40.386Z,36.40
2019-05-14T15:44:10.948Z,37.20
2019-05-14T15:46:42.198Z,36.40
2019-05-14T15:49:13.968Z,37.10
2019-05-14T15:51:44.526Z,36.60
2019-05-14T15:54:35.016Z,37.10
2019-05-14T15:56:49.303Z,36.70
2019-05-14T15:59:20.036Z,37.30
2019-05-14T16:01:50.706Z,37.50
2019-05-14T16:04:21.210Z,37.20
2019-05-14T16:06:51.996Z,37.30
2019-05-14T16:09:22.497Z,37.60
2019-05-14T16:11:53.207Z,36.70
2019-05-14T16:14:23.795Z,37.00
2019-05-14T16:16:54.261Z,36.10
2019-05-14T16:19:24.818Z,37.10
2019-05-14T16:21:55.326Z,36.70
2019-05-14T16:24:28.390Z,37.40
2019-05-14T16:27:00.092Z,36.80
2019-05-14T16:29:44.281Z,37.50
2019-05-14T16:32:02.582Z,37.70
2019-05-14T16:34:33.029Z,37.60
2019-05-14T16:37:03.519Z,37.50
2019-05-14T16:39:33.956Z,38.60
2019-05-14T16:42:04.668Z,38.70
2019-05-14T16:44:35.147Z,38.10
2019-05-14T16:47:05.632Z,39.00
2019-05-14T16:49:36.200Z,38.20
2019-05-14T16:52:09.171Z,37.60
2019-05-14T16:54:39.581Z,38.00
2019-05-14T16:57:11.010Z,38.30
2019-05-14T16:59:41.747Z,38.10
2019-05-14T17:02:12.216Z,38.50
2019-05-14T17:04:42.715Z,38.30
2019-05-14T17:07:13.228Z,38.20
2019-05-14T17:09:43.933Z,38.80
2019-05-14T17:12:14.515Z,38.50
2019-05-14T17:14:45.232Z,38.80
2019-05-14T17:17:15.688Z,38.50
2019-05-14T17:19:48.049Z,38.60
2019-05-14T17:22:28.683Z,39.50
2019-05-14T17:24:50.898Z,39.60
2019-05-14T17:27:21.387Z,38.60
2019-05-14T17:29:52.007Z,38.90
2019-05-14T17:32:22.476Z,39.30
2019-05-14T17:34:52.998Z,39.00
2019-05-14T17:37:23.562Z,39.10
2019-05-14T17:39:53.984Z,39.30
2019-05-14T17:42:24.485Z,38.90
2019-05-14T17:44:55.039Z,38.60
2019-05-14T17:47:25.543Z,38.80
2019-05-14T17:49:56.064Z,39.20
2019-05-14T17:52:29.859Z,39.40
2019-05-14T17:54:58.826Z,39.10
2019-05-14T17:57:35.153Z,39.10
2019-05-14T18:00:01.606Z,39.50
2019-05-14T18:02:32.031Z,40.30
2019-05-14T18:05:02.511Z,40.00
2019-05-14T18:07:33.099Z,40.00
2019-05-14T18:10:03.740Z,40.10
2019-05-14T18:12:34.222Z,39.50
2019-05-14T18:15:04.929Z,39.70
2019-05-14T18:17:35.458Z,39.80
2019-05-14T18:20:08.170Z,39.60
2019-05-14T18:22:42.217Z,39.60
2019-05-14T18:25:11.052Z,39.20
2019-05-14T18:27:41.783Z,39.40
2019-05-14T18:30:12.359Z,39.60
2019-05-14T18:32:42.831Z,39.70
2019-05-14T18:35:13.563Z,40.00
2019-05-14T18:37:44.230Z,39.70
2019-05-14T18:40:14.788Z,40.00
2019-05-14T18:42:45.234Z,40.20
2019-05-14T18:45:16.168Z,41.00
2019-05-14T18:47:48.472Z,40.60
2019-05-14T18:50:19.727Z,40.70
2019-05-14T18:52:50.894Z,40.70
2019-05-14T18:55:21.409Z,41.10
2019-05-14T18:57:52.108Z,41.50
2019-05-14T19:00:22.889Z,41.30
2019-05-14T19:02:53.400Z,41.80
2019-05-14T19:05:23.931Z,41.70
2019-05-14T19:07:54.398Z,42.80
2019-05-14T19:10:24.898Z,43.50
2019-05-14T19:12:55.378Z,44.50
2019-05-14T19:15:26.046Z,45.50
2019-05-14T19:18:00.496Z,46.20
2019-05-14T19:20:28.850Z,46.70
2019-05-14T19:23:00.186Z,47.10
2019-05-14T19:25:30.784Z,47.30
2019-05-14T19:28:01.307Z,47.60
2019-05-14T19:30:31.997Z,48.00
2019-05-14T19:33:02.506Z,48.60
2019-05-14T19:35:33.142Z,49.80
2019-05-14T19:38:03.685Z,51.00
2019-05-14T19:40:34.223Z,52.10
2019-05-14T19:43:04.683Z,53.60
2019-05-14T19:45:35.254Z,54.50
2019-05-14T19:48:08.039Z,55.10
2019-05-14T19:50:38.783Z,55.70
2019-05-14T19:53:09.610Z,56.00
2019-05-14T19:55:40.147Z,56.50
2019-05-14T19:58:10.715Z,56.90
2019-05-14T20:00:41.261Z,57.50
2019-05-14T20:03:11.759Z,57.80
2019-05-14T20:05:42.268Z,58.10
2019-05-14T20:08:12.846Z,58.40
2019-05-14T20:10:43.674Z,58.80
2019-05-14T20:13:14.366Z,59.20
2019-05-14T20:15:45.082Z,59.40
2019-05-14T20:18:15.671Z,59.70
2019-05-14T20:20:46.450Z,59.80
2019-05-14T20:23:18.489Z,60.40
2019-05-14T20:25:49.417Z,61.00
2019-05-14T20:28:19.843Z,61.20
2019-05-14T20:30:51.062Z,61.40
2019-05-14T20:33:21.734Z,61.40
2019-05-14T20:35:52.282Z,61.70
2019-05-14T20:38:22.820Z,62.10
2019-05-14T20:40:53.316Z,62.60
2019-05-14T20:43:23.817Z,62.70
2019-05-14T20:45:54.263Z,62.90
2019-05-14T20:48:25.046Z,62.80
2019-05-14T20:50:55.676Z,62.90
2019-05-14T20:53:29.114Z,63.10
2019-05-14T20:56:00.555Z,63.30
2019-05-14T20:58:31.382Z,63.50
2019-05-14T21:01:02.094Z,63.60
2019-05-14T21:03:32.714Z,63.80
2019-05-14T21:06:03.230Z,64.00
2019-05-14T21:08:37.953Z,64.40
2019-05-14T21:11:08.595Z,64.50
2019-05-14T21:13:39.125Z,64.50
2019-05-14T21:16:10.882Z,64.60
2019-05-14T21:18:41.538Z,64.70
2019-05-14T21:21:12.085Z,64.70
2019-05-14T21:23:42.733Z,65.10
2019-05-14T21:26:14.713Z,65.10
2019-05-14T21:28:45.231Z,65.50
2019-05-14T21:31:18.097Z,65.50
2019-05-14T21:33:48.939Z,65.80
2019-05-14T21:36:19.661Z,65.50
2019-05-14T21:38:50.166Z,65.60
2019-05-14T21:41:20.806Z,65.70
2019-05-14T21:43:51.362Z,65.70
2019-05-14T21:46:21.896Z,66.10
2019-05-14T21:48:52.350Z,66.20
2019-05-14T21:51:22.820Z,66.50
2019-05-14T21:53:53.344Z,66.50
2019-05-14T21:56:23.835Z,66.70
2019-05-14T21:58:54.304Z,67.20
2019-05-14T22:01:25.017Z,67.20
2019-05-14T22:03:55.589Z,67.30
2019-05-14T22:06:26.116Z,67.30
2019-05-14T22:08:59.097Z,67.70
2019-05-14T22:11:29.436Z,67.80
2019-05-14T22:14:00.137Z,68.00
2019-05-14T22:16:30.660Z,68.50
2019-05-14T22:19:01.166Z,68.80
2019-05-14T22:21:31.940Z,69.00
2019-05-14T22:24:02.561Z,69.40
2019-05-14T22:26:33.076Z,70.50
2019-05-14T22:29:03.684Z,69.80
2019-05-14T22:31:34.375Z,69.60
2019-05-14T22:34:08.738Z,69.70
2019-05-14T22:36:39.021Z,69.90
2019-05-14T22:39:09.779Z,70.40
2019-05-14T22:41:40.407Z,70.70
2019-05-14T22:44:10.928Z,70.80
2019-05-14T22:46:41.471Z,70.80
2019-05-14T22:49:12.104Z,71.30
2019-05-14T22:51:42.628Z,71.30
2019-05-14T22:54:13.153Z,71.50
2019-05-14T22:56:43.724Z,71.50
2019-05-14T22:59:14.281Z,71.30
2019-05-14T23:01:44.990Z,71.40
2019-05-14T23:04:15.466Z,71.80
2019-05-14T23:06:46.131Z,71.70
2019-05-14T23:09:19.005Z,71.80
2019-05-14T23:11:49.053Z,71.90
2019-05-14T23:14:19.710Z,72.10
2019-05-14T23:16:50.284Z,72.10
2019-05-14T23:19:20.743Z,71.70
2019-05-14T23:21:51.260Z,71.70
2019-05-14T23:24:21.820Z,71.90
2019-05-14T23:26:52.363Z,71.70
2019-05-14T23:29:22.870Z,71.90
2019-05-14T23:31:53.389Z,72.20
2019-05-14T23:34:23.863Z,72.00
2019-05-14T23:36:54.347Z,72.20
2019-05-14T23:39:25.956Z,71.90
2019-05-14T23:41:58.347Z,71.70
2019-05-14T23:44:29.384Z,71.60
2019-05-14T23:46:59.958Z,71.90
2019-05-14T23:49:30.524Z,72.00
2019-05-14T23:52:01.441Z,71.90
2019-05-14T23:54:32.069Z,72.00
2019-05-14T23:57:02.692Z,72.20
2019-05-14T23:59:33.180Z,72.50
